createdAt,value
2019-02-21T00:02:03.894Z,7.53
2019-02-21T00:04:33.326Z,8.33
2019-02-21T00:07:02.675Z,8.63
2019-02-21T00:09:32.043Z,8.97
2019-02-21T00:12:01.392Z,10.33
2019-02-21T00:14:30.583Z,10.40
2019-02-21T00:16:59.969Z,10.43
2019-02-21T00:19:29.135Z,9.63
2019-02-21T00:21:58.322Z,9.93
2019-02-21T00:24:27.441Z,9.80
2019-02-21T00:26:56.912Z,9.00
2019-02-21T00:29:25.990Z,9.33
2019-02-21T00:31:55.707Z,8.90
2019-02-21T00:34:25.055Z,8.90
2019-02-21T00:36:54.664Z,8.70
2019-02-21T00:39:24.018Z,8.97
2019-02-21T00:41:53.879Z,10.17
2019-02-21T00:44:22.966Z,9.20
2019-02-21T00:46:51.846Z,9.07
2019-02-21T00:49:20.664Z,8.67
2019-02-21T00:51:49.870Z,8.57
2019-02-21T00:54:19.201Z,7.80
2019-02-21T00:56:48.547Z,9.27
2019-02-21T00:59:18.201Z,9.93
2019-02-21T01:01:48.251Z,9.60
2019-02-21T01:04:17.715Z,9.10
2019-02-21T01:06:46.949Z,8.53
2019-02-21T01:09:17.363Z,9.40
2019-02-21T01:11:46.967Z,10.93
2019-02-21T01:14:16.827Z,11.63
2019-02-21T01:16:47.367Z,11.20
2019-02-21T01:19:16.843Z,12.43
2019-02-21T01:21:45.928Z,10.60
2019-02-21T01:24:16.201Z,10.80
2019-02-21T01:26:45.350Z,9.30
2019-02-21T01:29:15.063Z,8.90
2019-02-21T01:31:45.016Z,8.63
2019-02-21T01:34:14.615Z,8.97
2019-02-21T01:36:44.331Z,9.40
2019-02-21T01:39:13.923Z,8.90
2019-02-21T01:41:43.098Z,8.93
2019-02-21T01:44:14.128Z,8.70
2019-02-21T01:46:43.707Z,8.67
2019-02-21T01:49:13.628Z,8.47
2019-02-21T01:51:43.247Z,8.17
2019-02-21T01:54:12.582Z,7.43
2019-02-21T01:56:42.520Z,7.93
2019-02-21T01:59:12.158Z,11.50
2019-02-21T02:01:41.406Z,14.00
2019-02-21T02:04:11.618Z,14.87
2019-02-21T02:06:41.291Z,15.60
2019-02-21T02:09:12.767Z,16.13
2019-02-21T02:11:42.220Z,15.23
2019-02-21T02:14:11.671Z,13.30
2019-02-21T02:16:41.019Z,13.60
2019-02-21T02:19:10.237Z,13.20
2019-02-21T02:21:40.443Z,13.40
2019-02-21T02:24:09.324Z,13.53
2019-02-21T02:26:38.701Z,14.00
2019-02-21T02:29:08.062Z,13.90
2019-02-21T02:31:37.215Z,14.47
2019-02-21T02:34:06.287Z,14.50
2019-02-21T02:36:35.716Z,10.60
2019-02-21T02:39:05.516Z,9.37
2019-02-21T02:41:34.638Z,8.23
2019-02-21T02:44:03.782Z,8.37
2019-02-21T02:46:33.251Z,9.10
2019-02-21T02:49:02.174Z,8.33
2019-02-21T02:51:31.646Z,7.83
2019-02-21T02:54:03.387Z,13.60
2019-02-21T02:56:32.643Z,16.10
2019-02-21T02:59:01.989Z,14.77
2019-02-21T03:01:34.628Z,17.07
2019-02-21T03:04:02.241Z,15.67
2019-02-21T03:06:31.364Z,13.93
2019-02-21T03:09:00.529Z,14.07
2019-02-21T03:11:29.741Z,14.30
2019-02-21T03:13:58.530Z,14.57
2019-02-21T03:16:27.610Z,14.73
2019-02-21T03:18:56.400Z,14.90
2019-02-21T03:21:25.337Z,14.57
2019-02-21T03:23:54.419Z,14.93
2019-02-21T03:26:23.831Z,14.80
2019-02-21T03:28:52.934Z,14.90
2019-02-21T03:31:22.291Z,15.67
2019-02-21T03:33:51.503Z,16.60
2019-02-21T03:36:20.315Z,15.27
2019-02-21T03:38:49.696Z,12.50
2019-02-21T03:41:18.849Z,9.40
2019-02-21T03:43:47.637Z,9.33
2019-02-21T03:46:16.763Z,9.80
2019-02-21T03:48:46.179Z,9.50
2019-02-21T03:51:15.257Z,9.23
2019-02-21T03:53:44.799Z,13.77
2019-02-21T03:56:14.023Z,14.20
2019-02-21T03:58:43.443Z,14.67
2019-02-21T04:01:13.203Z,14.80
2019-02-21T04:03:42.440Z,15.00
2019-02-21T04:06:11.534Z,15.97
2019-02-21T04:08:40.627Z,16.70
2019-02-21T04:11:09.802Z,16.13
2019-02-21T04:13:39.574Z,15.97
2019-02-21T04:16:09.238Z,13.17
2019-02-21T04:18:38.151Z,14.00
2019-02-21T04:21:07.265Z,14.67
2019-02-21T04:23:36.666Z,14.20
2019-02-21T04:26:05.767Z,14.67
2019-02-21T04:28:34.874Z,13.20
2019-02-21T04:31:04.493Z,13.73
2019-02-21T04:33:34.520Z,13.57
2019-02-21T04:36:03.691Z,14.17
2019-02-21T04:38:33.078Z,12.03
2019-02-21T04:41:02.450Z,13.97
2019-02-21T04:43:31.602Z,14.97
2019-02-21T04:46:00.770Z,16.37
2019-02-21T04:48:29.870Z,16.47
2019-02-21T04:50:58.796Z,17.00
2019-02-21T04:53:28.514Z,12.57
2019-02-21T04:55:57.622Z,12.17
2019-02-21T04:58:26.966Z,16.33
2019-02-21T05:00:55.815Z,17.53
2019-02-21T05:03:25.052Z,19.43
2019-02-21T05:05:54.864Z,18.53
2019-02-21T05:08:23.700Z,16.37
2019-02-21T05:10:52.818Z,12.97
2019-02-21T05:13:21.890Z,13.40
2019-02-21T05:15:50.686Z,13.73
2019-02-21T05:18:19.802Z,14.10
2019-02-21T05:20:49.404Z,13.43
2019-02-21T05:23:18.736Z,14.97
2019-02-21T05:25:47.830Z,16.53
2019-02-21T05:28:30.408Z,16.27
2019-02-21T05:31:19.575Z,17.23
2019-02-21T05:33:56.426Z,18.30
2019-02-21T05:36:43.521Z,19.47
2019-02-21T05:39:31.441Z,16.50
2019-02-21T05:42:38.327Z,14.93
2019-02-21T05:45:25.422Z,15.13
2019-02-21T05:48:04.718Z,17.40
2019-02-21T05:50:43.591Z,18.87
2019-02-21T05:53:31.114Z,18.93
2019-02-21T05:56:13.173Z,19.67
2019-02-21T05:58:47.917Z,21.33
2019-02-21T06:01:24.820Z,19.93
2019-02-21T06:04:22.075Z,19.90
2019-02-21T06:07:09.833Z,19.50
2019-02-21T06:10:01.246Z,22.07
2019-02-21T06:12:49.566Z,20.13
2019-02-21T06:15:29.910Z,18.70
2019-02-21T06:18:32.833Z,18.73
2019-02-21T06:21:15.673Z,18.40
2019-02-21T06:23:49.918Z,18.80
2019-02-21T06:26:42.307Z,19.07
2019-02-21T06:29:22.233Z,18.73
2019-02-21T06:31:50.156Z,18.10
2019-02-21T06:34:19.289Z,18.50
2019-02-21T06:36:48.067Z,18.00
2019-02-21T06:39:17.684Z,19.80
2019-02-21T06:41:46.486Z,19.17
2019-02-21T06:44:15.303Z,20.60
2019-02-21T06:46:44.646Z,20.40
2019-02-21T06:49:14.262Z,19.83
2019-02-21T06:51:43.033Z,15.77
2019-02-21T06:54:12.407Z,15.03
2019-02-21T06:56:41.466Z,12.87
2019-02-21T06:59:10.646Z,14.77
2019-02-21T07:01:39.470Z,19.70
2019-02-21T07:04:08.929Z,21.03
2019-02-21T07:06:39.213Z,20.27
2019-02-21T07:09:08.722Z,21.33
2019-02-21T07:11:37.508Z,21.57
2019-02-21T07:14:06.349Z,21.40
2019-02-21T07:16:37.359Z,25.47
2019-02-21T07:19:06.307Z,24.90
2019-02-21T07:21:36.615Z,24.23
2019-02-21T07:24:06.117Z,24.13
2019-02-21T07:26:35.203Z,23.77
2019-02-21T07:29:04.143Z,23.30
2019-02-21T07:31:33.491Z,25.33
2019-02-21T07:34:02.407Z,23.10
2019-02-21T07:36:31.355Z,23.50
2019-02-21T07:39:13.697Z,23.63
2019-02-21T07:41:31.778Z,23.17
2019-02-21T07:44:11.347Z,23.60
2019-02-21T07:46:32.402Z,22.63
2019-02-21T07:49:01.887Z,22.83
2019-02-21T07:51:31.043Z,23.37
2019-02-21T07:54:00.382Z,24.13
2019-02-21T07:56:29.189Z,22.70
2019-02-21T07:58:58.421Z,22.07
2019-02-21T08:01:27.495Z,23.13
2019-02-21T08:03:56.918Z,22.73
2019-02-21T08:06:26.491Z,21.20
2019-02-21T08:08:55.351Z,21.60
2019-02-21T08:11:24.323Z,22.87
2019-02-21T08:13:53.591Z,40.83
2019-02-21T08:16:22.383Z,23.57
2019-02-21T08:18:51.700Z,23.77
2019-02-21T08:21:20.973Z,22.10
2019-02-21T08:23:51.062Z,22.87
2019-02-21T08:26:20.656Z,22.20
2019-02-21T08:28:50.218Z,23.37
2019-02-21T08:31:19.515Z,22.60
2019-02-21T08:34:00.964Z,22.17
2019-02-21T08:36:30.288Z,21.20
2019-02-21T08:38:59.592Z,20.47
2019-02-21T08:41:29.364Z,21.33
2019-02-21T08:43:58.615Z,20.80
2019-02-21T08:46:27.647Z,20.57
2019-02-21T08:48:56.617Z,21.23
2019-02-21T08:51:26.200Z,20.87
2019-02-21T08:53:55.237Z,20.57
2019-02-21T08:56:23.972Z,21.53
2019-02-21T08:58:53.397Z,20.10
2019-02-21T09:01:22.921Z,19.60
2019-02-21T09:03:51.907Z,21.60
2019-02-21T09:06:20.982Z,19.30
2019-02-21T09:08:50.477Z,20.00
2019-02-21T09:11:19.915Z,18.43
2019-02-21T09:13:48.935Z,18.20
2019-02-21T09:16:18.315Z,18.60
2019-02-21T09:18:47.731Z,18.23
2019-02-21T09:21:17.341Z,17.47
2019-02-21T09:23:46.735Z,17.93
2019-02-21T09:26:16.740Z,16.97
2019-02-21T09:28:46.002Z,17.03
2019-02-21T09:31:15.304Z,16.70
2019-02-21T09:33:44.558Z,17.00
2019-02-21T09:36:13.944Z,18.27
2019-02-21T09:38:42.919Z,16.70
2019-02-21T09:41:12.231Z,16.67
2019-02-21T09:43:42.401Z,16.83
2019-02-21T09:46:11.509Z,16.30
2019-02-21T09:48:40.851Z,15.93
2019-02-21T09:51:10.123Z,16.30
2019-02-21T09:53:39.158Z,15.37
2019-02-21T09:56:08.427Z,15.40
2019-02-21T09:58:37.488Z,14.60
2019-02-21T10:01:07.008Z,15.87
2019-02-21T10:03:36.516Z,15.27
2019-02-21T10:06:08.208Z,14.43
2019-02-21T10:08:36.772Z,15.10
2019-02-21T10:11:05.839Z,14.17
2019-02-21T10:13:34.575Z,14.13
2019-02-21T10:16:04.794Z,13.53
2019-02-21T10:18:34.469Z,14.70
2019-02-21T10:21:03.811Z,13.30
2019-02-21T10:23:33.384Z,14.33
2019-02-21T10:26:02.440Z,14.53
2019-02-21T10:28:32.515Z,14.20
2019-02-21T10:31:01.770Z,13.90
2019-02-21T10:33:30.888Z,13.57
2019-02-21T10:36:00.605Z,13.77
2019-02-21T10:38:30.352Z,14.80
2019-02-21T10:40:59.435Z,15.10
2019-02-21T10:43:28.507Z,15.00
2019-02-21T10:45:57.580Z,15.20
2019-02-21T10:48:27.121Z,14.53
2019-02-21T10:50:55.931Z,14.97
2019-02-21T10:53:25.008Z,15.70
2019-02-21T10:55:54.060Z,15.17
2019-02-21T10:58:23.271Z,16.23
2019-02-21T11:00:52.723Z,15.00
2019-02-21T11:03:21.476Z,16.13
2019-02-21T11:05:50.807Z,15.97
2019-02-21T11:08:19.895Z,15.30
2019-02-21T11:10:49.350Z,15.97
2019-02-21T11:13:18.626Z,14.87
2019-02-21T11:15:48.387Z,15.97
2019-02-21T11:18:17.668Z,15.47
2019-02-21T11:20:46.916Z,16.13
2019-02-21T11:23:15.961Z,15.67
2019-02-21T11:25:45.257Z,16.77
2019-02-21T11:28:14.559Z,16.23
2019-02-21T11:30:44.460Z,16.67
2019-02-21T11:33:13.263Z,16.60
2019-02-21T11:35:43.214Z,14.97
2019-02-21T11:38:12.500Z,14.23
2019-02-21T11:40:42.351Z,13.97
2019-02-21T11:43:11.650Z,14.20
2019-02-21T11:45:40.995Z,13.73
2019-02-21T11:48:10.560Z,13.17
2019-02-21T11:50:39.756Z,13.73
2019-02-21T11:53:09.945Z,13.33
2019-02-21T11:55:39.127Z,13.37
2019-02-21T11:58:08.211Z,12.23
2019-02-21T12:00:39.380Z,13.63
2019-02-21T12:03:08.894Z,13.03
2019-02-21T12:05:38.221Z,13.60
2019-02-21T12:08:07.559Z,13.10
2019-02-21T12:10:37.095Z,13.80
2019-02-21T12:13:05.845Z,12.10
2019-02-21T12:15:37.658Z,12.20
2019-02-21T12:18:06.742Z,12.07
2019-02-21T12:20:35.808Z,17.57
2019-02-21T12:23:05.292Z,12.00
2019-02-21T12:25:34.323Z,12.00
2019-02-21T12:28:03.369Z,11.57
2019-02-21T12:30:33.615Z,12.90
2019-02-21T12:33:02.757Z,12.70
2019-02-21T12:35:32.205Z,12.57
2019-02-21T12:38:01.599Z,12.30
2019-02-21T12:40:30.940Z,18.83
2019-02-21T12:43:00.010Z,13.73
2019-02-21T12:45:30.140Z,12.33
2019-02-21T12:47:59.464Z,14.30
2019-02-21T12:50:28.249Z,11.90
2019-02-21T12:52:57.826Z,15.47
2019-02-21T12:55:31.458Z,11.17
2019-02-21T12:57:59.073Z,13.20
2019-02-21T13:00:28.265Z,11.90
2019-02-21T13:02:57.917Z,11.83
2019-02-21T13:05:27.262Z,10.43
2019-02-21T13:07:57.063Z,10.57
2019-02-21T13:10:26.351Z,10.90
2019-02-21T13:12:55.647Z,9.33
2019-02-21T13:15:24.860Z,8.70
2019-02-21T13:17:53.893Z,9.10
2019-02-21T13:20:22.995Z,8.93
2019-02-21T13:22:52.321Z,8.53
2019-02-21T13:25:21.612Z,9.17
2019-02-21T13:27:50.893Z,9.47
2019-02-21T13:30:19.683Z,8.93
2019-02-21T13:32:48.434Z,10.20
2019-02-21T13:35:18.062Z,8.97
2019-02-21T13:37:47.633Z,9.27
2019-02-21T13:40:16.991Z,9.60
2019-02-21T13:42:46.031Z,9.30
2019-02-21T13:45:17.589Z,10.00
2019-02-21T13:47:46.134Z,10.97
2019-02-21T13:50:16.109Z,10.43
2019-02-21T13:52:45.227Z,9.70
2019-02-21T13:55:15.039Z,11.40
2019-02-21T13:57:44.114Z,11.17
2019-02-21T14:00:15.520Z,10.40
2019-02-21T14:02:44.924Z,10.13
2019-02-21T14:05:14.133Z,10.37
2019-02-21T14:07:43.442Z,11.10
2019-02-21T14:10:12.929Z,10.20
2019-02-21T14:12:41.842Z,11.40
2019-02-21T14:15:14.389Z,10.60
2019-02-21T14:17:43.584Z,12.30
2019-02-21T14:20:12.540Z,18.43
2019-02-21T14:22:41.612Z,10.20
2019-02-21T14:25:10.611Z,10.17
2019-02-21T14:27:40.072Z,11.17
2019-02-21T14:30:11.643Z,10.17
2019-02-21T14:32:40.680Z,10.10
2019-02-21T14:35:10.928Z,9.67
2019-02-21T14:37:40.714Z,8.20
2019-02-21T14:40:10.994Z,9.50
2019-02-21T14:42:40.788Z,9.97
2019-02-21T14:45:12.574Z,8.73
2019-02-21T14:47:42.509Z,9.30
2019-02-21T14:50:11.976Z,8.73
2019-02-21T14:52:41.035Z,8.67
2019-02-21T14:55:11.134Z,9.07
2019-02-21T14:57:41.411Z,9.13
2019-02-21T15:00:16.302Z,8.60
2019-02-21T15:02:45.331Z,8.97
2019-02-21T15:05:14.692Z,8.90
2019-02-21T15:07:44.363Z,8.33
2019-02-21T15:10:13.335Z,8.73
2019-02-21T15:12:42.438Z,8.60
2019-02-21T15:15:13.418Z,9.17
2019-02-21T15:17:42.826Z,8.13
2019-02-21T15:20:13.166Z,8.67
2019-02-21T15:22:42.407Z,8.50
2019-02-21T15:25:11.640Z,8.10
2019-02-21T15:27:41.352Z,8.73
2019-02-21T15:30:13.062Z,8.37
2019-02-21T15:32:44.776Z,8.53
2019-02-21T15:35:13.972Z,9.40
2019-02-21T15:37:44.993Z,8.67
2019-02-21T15:40:14.545Z,9.40
2019-02-21T15:42:44.412Z,9.73
2019-02-21T15:45:22.943Z,9.80
2019-02-21T15:47:46.427Z,9.50
2019-02-21T15:50:19.693Z,9.43
2019-02-21T15:52:48.379Z,10.37
2019-02-21T15:55:17.506Z,9.47
2019-02-21T15:57:46.998Z,9.87
2019-02-21T16:00:17.471Z,9.47
2019-02-21T16:02:46.654Z,11.10
2019-02-21T16:05:16.351Z,9.23
2019-02-21T16:07:45.830Z,10.10
2019-02-21T16:10:17.298Z,10.50
2019-02-21T16:12:46.649Z,9.53
2019-02-21T16:15:16.528Z,10.53
2019-02-21T16:17:46.431Z,10.73
2019-02-21T16:20:15.727Z,10.03
2019-02-21T16:22:45.154Z,10.07
2019-02-21T16:25:16.098Z,9.93
2019-02-21T16:27:46.166Z,10.33
2019-02-21T16:30:16.095Z,10.17
2019-02-21T16:32:45.647Z,10.53
2019-02-21T16:35:15.351Z,10.33
2019-02-21T16:37:45.309Z,9.73
2019-02-21T16:40:14.738Z,10.63
2019-02-21T16:42:44.170Z,10.00
2019-02-21T16:45:13.883Z,10.17
2019-02-21T16:47:42.931Z,11.27
2019-02-21T16:50:12.823Z,10.57
2019-02-21T16:52:42.527Z,11.30
2019-02-21T16:55:14.436Z,11.70
2019-02-21T16:57:43.601Z,11.70
2019-02-21T17:00:14.243Z,11.50
2019-02-21T17:02:43.152Z,11.27
2019-02-21T17:05:12.542Z,12.20
2019-02-21T17:07:41.798Z,10.40
2019-02-21T17:10:11.635Z,11.03
2019-02-21T17:12:41.059Z,11.37
2019-02-21T17:15:11.023Z,11.40
2019-02-21T17:17:40.203Z,12.47
2019-02-21T17:20:11.232Z,12.67
2019-02-21T17:22:40.420Z,12.60
2019-02-21T17:25:10.514Z,12.83
2019-02-21T17:27:39.834Z,11.93
2019-02-21T17:30:10.286Z,13.50
2019-02-21T17:32:39.535Z,13.47
2019-02-21T17:35:08.569Z,13.80
2019-02-21T17:37:38.064Z,12.67
2019-02-21T17:40:08.827Z,12.40
2019-02-21T17:42:37.958Z,12.73
2019-02-21T17:45:07.845Z,13.10
2019-02-21T17:47:37.102Z,12.60
2019-02-21T17:50:06.862Z,12.47
2019-02-21T17:52:35.740Z,12.87
2019-02-21T17:55:05.471Z,12.57
2019-02-21T17:57:36.934Z,12.87
2019-02-21T18:00:08.735Z,13.30
2019-02-21T18:02:48.570Z,12.23
2019-02-21T18:05:18.281Z,12.67
2019-02-21T18:07:47.642Z,12.57
2019-02-21T18:10:16.903Z,13.43
2019-02-21T18:12:46.885Z,13.13
2019-02-21T18:15:16.178Z,13.50
2019-02-21T18:17:45.815Z,15.27
2019-02-21T18:20:14.988Z,13.70
2019-02-21T18:22:44.862Z,13.67
2019-02-21T18:25:17.879Z,14.07
2019-02-21T18:27:47.025Z,13.30
2019-02-21T18:30:17.776Z,12.87
2019-02-21T18:32:47.314Z,14.57
2019-02-21T18:35:16.300Z,13.00
2019-02-21T18:37:47.774Z,12.87
2019-02-21T18:40:19.671Z,13.40
2019-02-21T18:42:47.789Z,13.90
2019-02-21T18:45:16.995Z,17.93
2019-02-21T18:47:45.922Z,15.17
2019-02-21T18:50:15.622Z,13.93
2019-02-21T18:52:44.576Z,14.43
2019-02-21T18:55:13.955Z,14.70
2019-02-21T18:57:43.450Z,13.97
2019-02-21T19:00:13.832Z,16.10
2019-02-21T19:02:44.204Z,15.70
2019-02-21T19:05:14.127Z,14.33
2019-02-21T19:07:43.981Z,17.20
2019-02-21T19:10:15.938Z,17.70
2019-02-21T19:12:46.366Z,19.80
2019-02-21T19:15:16.994Z,17.87
2019-02-21T19:17:46.252Z,17.87
2019-02-21T19:20:15.874Z,17.57
2019-02-21T19:22:46.175Z,18.73
2019-02-21T19:25:15.867Z,25.17
2019-02-21T19:27:44.968Z,37.60
2019-02-21T19:30:25.623Z,27.47
2019-02-21T19:32:57.799Z,20.30
2019-02-21T19:35:26.875Z,33.70
2019-02-21T19:37:55.963Z,65.23
2019-02-21T19:40:25.523Z,40.57
2019-02-21T19:42:54.410Z,45.13
2019-02-21T19:45:23.870Z,45.53
2019-02-21T19:47:53.870Z,25.67
2019-02-21T19:50:23.238Z,23.00
2019-02-21T19:52:53.370Z,21.13
2019-02-21T19:55:23.432Z,19.87
2019-02-21T19:57:52.903Z,19.83
2019-02-21T20:00:24.312Z,22.83
2019-02-21T20:02:53.808Z,21.00
2019-02-21T20:05:32.796Z,20.47
2019-02-21T20:08:08.738Z,23.20
2019-02-21T20:10:36.073Z,22.37
2019-02-21T20:13:07.714Z,20.70
2019-02-21T20:15:37.599Z,19.90
2019-02-21T20:18:07.324Z,18.37
2019-02-21T20:20:38.487Z,21.77
2019-02-21T20:23:09.116Z,20.20
2019-02-21T20:25:39.436Z,18.60
2019-02-21T20:28:10.007Z,17.93
2019-02-21T20:30:40.329Z,20.63
2019-02-21T20:33:10.038Z,20.60
2019-02-21T20:35:40.281Z,21.37
2019-02-21T20:38:10.745Z,21.80
2019-02-21T20:40:41.221Z,22.43
2019-02-21T20:43:10.660Z,22.77
2019-02-21T20:45:40.900Z,22.47
2019-02-21T20:48:10.793Z,21.63
2019-02-21T20:50:40.479Z,20.90
2019-02-21T20:53:10.004Z,20.70
2019-02-21T20:55:43.810Z,21.00
2019-02-21T20:58:12.743Z,23.23
2019-02-21T21:00:43.113Z,21.40
2019-02-21T21:03:12.033Z,19.27
2019-02-21T21:05:41.159Z,21.33
2019-02-21T21:08:10.940Z,20.23
2019-02-21T21:10:39.812Z,18.67
2019-02-21T21:13:09.060Z,17.53
2019-02-21T21:15:38.265Z,20.70
2019-02-21T21:18:08.067Z,20.30
2019-02-21T21:20:37.493Z,20.20
2019-02-21T21:23:06.380Z,19.13
2019-02-21T21:25:35.583Z,20.50
2019-02-21T21:28:04.540Z,19.37
2019-02-21T21:30:34.151Z,18.70
2019-02-21T21:33:03.565Z,24.57
2019-02-21T21:35:32.610Z,22.90
2019-02-21T21:38:02.291Z,24.77
2019-02-21T21:40:31.403Z,22.93
2019-02-21T21:43:00.333Z,19.60
2019-02-21T21:45:29.113Z,18.93
2019-02-21T21:47:58.350Z,19.33
2019-02-21T21:50:28.455Z,19.90
2019-02-21T21:52:57.644Z,21.10
2019-02-21T21:55:27.289Z,19.23
2019-02-21T21:57:57.138Z,18.57
2019-02-21T22:00:27.321Z,17.93
2019-02-21T22:02:59.608Z,19.47
2019-02-21T22:05:28.760Z,18.73
2019-02-21T22:07:58.623Z,18.13
2019-02-21T22:10:28.295Z,19.70
2019-02-21T22:12:57.452Z,18.97
2019-02-21T22:15:27.516Z,19.33
2019-02-21T22:17:56.942Z,19.63
2019-02-21T22:20:26.038Z,18.70
2019-02-21T22:22:56.420Z,19.47
2019-02-21T22:25:25.865Z,19.37
2019-02-21T22:27:55.484Z,19.40
2019-02-21T22:30:25.769Z,19.23
2019-02-21T22:32:55.636Z,18.27
2019-02-21T22:35:25.079Z,19.33
2019-02-21T22:37:54.982Z,17.93
2019-02-21T22:40:24.667Z,18.83
2019-02-21T22:42:53.846Z,19.17
2019-02-21T22:45:23.106Z,19.07
2019-02-21T22:47:52.540Z,17.47
2019-02-21T22:50:22.025Z,19.10
2019-02-21T22:52:51.947Z,19.10
2019-02-21T22:55:21.222Z,19.00
2019-02-21T22:57:50.608Z,20.30
2019-02-21T23:00:52.494Z,18.97
2019-02-21T23:03:21.981Z,18.43
2019-02-21T23:06:16.582Z,19.80
2019-02-21T23:08:53.780Z,18.83
2019-02-21T23:11:23.519Z,19.63
2019-02-21T23:13:53.249Z,19.53
2019-02-21T23:16:22.492Z,19.57
2019-02-21T23:18:51.727Z,19.53
2019-02-21T23:21:20.762Z,20.20
2019-02-21T23:23:50.249Z,20.27
2019-02-21T23:26:19.628Z,20.87
2019-02-21T23:28:48.735Z,19.60
2019-02-21T23:31:17.503Z,19.60
2019-02-21T23:33:50.437Z,20.20
2019-02-21T23:36:19.522Z,20.23
2019-02-21T23:38:48.356Z,20.57
2019-02-21T23:41:17.463Z,21.00
2019-02-21T23:43:47.344Z,21.07
2019-02-21T23:46:16.481Z,20.07
2019-02-21T23:48:45.817Z,20.60
2019-02-21T23:51:15.236Z,20.57
2019-02-21T23:53:44.555Z,20.73
2019-02-21T23:56:13.413Z,20.50
2019-02-21T23:58:43.168Z,20.57
